ESOE/ORB METAR and TAF weather

Enter ICAO airport designator
Station Type Date Time Source
ESOE METAR 2019/06/24 23:20 UTC NOAA

ESOE 242320Z 05003KT CAVOK 14/09 Q1029


Station Type Date Time Source
ESOE Decoded METAR 2019/06/24 23:20 UTC NOAA

Orebro Private , Sweden (ESOE) 59-14N 015-03E
Jun 24, 2019 - 07:20 PM EDT / 2019.06.24 2320 UTC
Wind: from the NE (050 degrees) at 3 MPH (3 KT):0
Visibility: greater than 7 mile(s):0
Temperature: 57 F (14 C)
Dew Point: 48 F (9 C)
Relative Humidity: 71%
Pressure (altimeter): 30.39 in. Hg (1029 hPa)
ob: ESOE 242320Z 05003KT CAVOK 14/09 Q1029
cycle: 23

Station Type Date Time Source
ESOE TAF 2016/03/16 04:36 UTC NOAA

TAF TAF ESOE 160330Z 1604/1624 23005KT 9000 BR NSC PROB40 1604/1607 1200 BR

Example: see airport list